Terminal Aerodrome Forecast
Issued by NWS

Home | Current Version | Previous Version | Graphics & Text | Print | Product List | Glossary On
Versions: 1 2 3 4 5 6 7 8 9 10 11 12 13 14 15 16 17 18 19 20 21
000
FTUS42 KMHX 291200 AAA
TAFISO
TAF AMD
KISO 291232Z 2913/3012 00000KT 5SM BR SCT001
     FM291330 35005KT P6SM SCT050 BKN100
     FM291700 35005KT P6SM VCSH SCT025 OVC050
     FM300400 01003KT 4SM BR BKN100
      AMD LTD TO CLD VIS AND WIND=

USA.gov is the U.S. government's official web portal to all federal, state and local government web resources and services.